Portada
METAR-TAF:

METAR-TAF

Aeropuertos :

Remada, Túnez

latitud: 32-19N, longitud: 010-24E, altitud: 300 m

Observación

El informe se hizo hace 1 hora y 4 minutos, a las 11:00 UTC
Viento 11 kt del oeste-suroeste, variando entre sur-suroeste y oeste
Temperatura 40°C
Humedad 12%
Presión 1007 hPa
Visibilidad: 4000 m
arena

METAR: DTTD 191100Z 25011KT 210V280 4000 SA NSC 40/05 Q1007 RMK SIROCCO

Hora: 13:04 (12:04 UTC)


TAF: falta

Observaciones y pronósticos meteorológicos de más de 4000 aeropuertos (mensajes METAR y TAF).

Los puntos amarillos y rojos representan las estaciones disponibles.

Ponga el ratón en el punto deseado para ver el nombre de la estación.

Haga clic para ver las observaciones y los pronósticos meteorológicos.

Para cambiar el mapa : haga clic en los botones verdes con una cruz de color negro para hacer un zoom, en el botón verde con un guión para alejar o en las flechas verdes para mapas adyacentes.


METAR-TAF: